sensor_id;sensor_type;location;lat;lon;timestamp;temperature;humidity
5683;DHT22;2864;49.220;8.654;2022-10-17T00:01:39;13.00;99.90
5683;DHT22;2864;49.220;8.654;2022-10-17T00:35:19;12.60;99.90
5683;DHT22;2864;49.220;8.654;2022-10-17T00:37:45;14.80;99.90
5683;DHT22;2864;49.220;8.654;2022-10-17T00:40:11;13.70;99.90
5683;DHT22;2864;49.220;8.654;2022-10-17T00:42:37;12.60;99.90
5683;DHT22;2864;49.220;8.654;2022-10-17T00:47:32;12.50;99.90
5683;DHT22;2864;49.220;8.654;2022-10-17T00:49:58;12.40;99.90
5683;DHT22;2864;49.220;8.654;2022-10-17T00:52:27;12.40;99.90
5683;DHT22;2864;49.220;8.654;2022-10-17T00:54:57;12.40;99.90
5683;DHT22;2864;49.220;8.654;2022-10-17T00:57:24;12.40;99.90
5683;DHT22;2864;49.220;8.654;2022-10-17T00:59:52;12.40;99.90
5683;DHT22;2864;49.220;8.654;2022-10-17T01:02:20;12.40;99.90
5683;DHT22;2864;49.220;8.654;2022-10-17T01:04:50;12.40;99.90
5683;DHT22;2864;49.220;8.654;2022-10-17T01:13:29;12.30;99.90
5683;DHT22;2864;49.220;8.654;2022-10-17T01:16:12;12.30;99.90
5683;DHT22;2864;49.220;8.654;2022-10-17T01:24:08;12.20;99.90
5683;DHT22;2864;49.220;8.654;2022-10-17T01:35:31;12.10;99.90
5683;DHT22;2864;49.220;8.654;2022-10-17T01:40:54;12.20;99.90
5683;DHT22;2864;49.220;8.654;2022-10-17T01:46:35;12.10;99.90
5683;DHT22;2864;49.220;8.654;2022-10-17T01:49:03;12.10;99.90
5683;DHT22;2864;49.220;8.654;2022-10-17T01:51:38;12.10;99.90
5683;DHT22;2864;49.220;8.654;2022-10-17T01:56:58;12.20;99.90
5683;DHT22;2864;49.220;8.654;2022-10-17T01:59:36;12.20;99.90
5683;DHT22;2864;49.220;8.654;2022-10-17T02:02:04;12.20;99.90
5683;DHT22;2864;49.220;8.654;2022-10-17T02:04:30;12.20;99.90
5683;DHT22;2864;49.220;8.654;2022-10-17T02:06:56;12.20;99.90
5683;DHT22;2864;49.220;8.654;2022-10-17T02:09:26;12.20;99.90
5683;DHT22;2864;49.220;8.654;2022-10-17T02:12:10;12.20;99.90
5683;DHT22;2864;49.220;8.654;2022-10-17T02:15:21;12.20;99.90
5683;DHT22;2864;49.220;8.654;2022-10-17T02:24:39;12.20;99.90
5683;DHT22;2864;49.220;8.654;2022-10-17T02:27:16;12.20;99.90
5683;DHT22;2864;49.220;8.654;2022-10-17T02:29:47;12.20;99.90
5683;DHT22;2864;49.220;8.654;2022-10-17T02:32:20;12.20;99.90
5683;DHT22;2864;49.220;8.654;2022-10-17T02:34:51;12.20;99.90
5683;DHT22;2864;49.220;8.654;2022-10-17T02:37:23;12.20;99.90
5683;DHT22;2864;49.220;8.654;2022-10-17T02:39:50;12.30;99.90
5683;DHT22;2864;49.220;8.654;2022-10-17T02:42:17;12.30;99.90
5683;DHT22;2864;49.220;8.654;2022-10-17T02:44:43;12.30;99.90
5683;DHT22;2864;49.220;8.654;2022-10-17T02:47:22;12.40;99.90
5683;DHT22;2864;49.220;8.654;2022-10-17T02:49:51;12.30;99.90
5683;DHT22;2864;49.220;8.654;2022-10-17T02:52:44;12.30;99.90
5683;DHT22;2864;49.220;8.654;2022-10-17T02:57:43;12.30;99.90
5683;DHT22;2864;49.220;8.654;2022-10-17T03:00:11;12.20;99.90
5683;DHT22;2864;49.220;8.654;2022-10-17T03:02:43;12.30;99.90
5683;DHT22;2864;49.220;8.654;2022-10-17T03:05:12;12.30;99.90
5683;DHT22;2864;49.220;8.654;2022-10-17T03:10:04;12.30;99.90
5683;DHT22;2864;49.220;8.654;2022-10-17T03:14:55;12.30;99.90
5683;DHT22;2864;49.220;8.654;2022-10-17T03:17:21;12.30;99.90
5683;DHT22;2864;49.220;8.654;2022-10-17T03:19:46;12.30;99.90
5683;DHT22;2864;49.220;8.654;2022-10-17T03:22:12;12.40;99.90
5683;DHT22;2864;49.220;8.654;2022-10-17T03:24:38;12.30;99.90
5683;DHT22;2864;49.220;8.654;2022-10-17T03:27:03;12.30;99.90
5683;DHT22;2864;49.220;8.654;2022-10-17T03:29:29;12.30;99.90
5683;DHT22;2864;49.220;8.654;2022-10-17T03:31:54;12.40;99.90
5683;DHT22;2864;49.220;8.654;2022-10-17T03:34:20;12.30;99.90
5683;DHT22;2864;49.220;8.654;2022-10-17T03:36:46;12.30;99.90
5683;DHT22;2864;49.220;8.654;2022-10-17T03:39:11;12.20;99.90
5683;DHT22;2864;49.220;8.654;2022-10-17T03:41:37;12.20;99.90
5683;DHT22;2864;49.220;8.654;2022-10-17T03:44:03;12.20;99.90
5683;DHT22;2864;49.220;8.654;2022-10-17T03:51:20;12.20;99.90
5683;DHT22;2864;49.220;8.654;2022-10-17T03:53:46;12.20;99.90
5683;DHT22;2864;49.220;8.654;2022-10-17T03:56:17;12.20;99.90
5683;DHT22;2864;49.220;8.654;2022-10-17T03:58:43;12.30;99.90
5683;DHT22;2864;49.220;8.654;2022-10-17T04:01:11;12.40;99.90
5683;DHT22;2864;49.220;8.654;2022-10-17T04:03:38;12.30;99.90
5683;DHT22;2864;49.220;8.654;2022-10-17T04:06:05;12.40;99.90
5683;DHT22;2864;49.220;8.654;2022-10-17T04:08:32;12.30;99.90
5683;DHT22;2864;49.220;8.654;2022-10-17T04:11:02;12.30;99.90
5683;DHT22;2864;49.220;8.654;2022-10-17T04:13:29;14.50;99.90
5683;DHT22;2864;49.220;8.654;2022-10-17T04:16:03;12.30;99.90
5683;DHT22;2864;49.220;8.654;2022-10-17T04:18:30;12.40;99.90
5683;DHT22;2864;49.220;8.654;2022-10-17T04:20:55;12.40;99.90
5683;DHT22;2864;49.220;8.654;2022-10-17T04:23:21;12.40;99.90
5683;DHT22;2864;49.220;8.654;2022-10-17T04:25:47;12.40;99.90
5683;DHT22;2864;49.220;8.654;2022-10-17T04:28:13;12.40;99.90
5683;DHT22;2864;49.220;8.654;2022-10-17T04:30:39;12.40;99.90
5683;DHT22;2864;49.220;8.654;2022-10-17T04:33:05;12.40;99.90
5683;DHT22;2864;49.220;8.654;2022-10-17T04:37:56;12.20;99.90
5683;DHT22;2864;49.220;8.654;2022-10-17T04:40:22;12.20;99.90
5683;DHT22;2864;49.220;8.654;2022-10-17T04:47:39;12.20;99.90
5683;DHT22;2864;49.220;8.654;2022-10-17T04:50:05;12.10;99.90
5683;DHT22;2864;49.220;8.654;2022-10-17T04:52:32;12.10;99.90
5683;DHT22;2864;49.220;8.654;2022-10-17T04:54:58;12.10;99.90
5683;DHT22;2864;49.220;8.654;2022-10-17T04:57:24;12.10;99.90
5683;DHT22;2864;49.220;8.654;2022-10-17T04:59:50;12.00;99.90
5683;DHT22;2864;49.220;8.654;2022-10-17T05:07:07;11.80;99.90
5683;DHT22;2864;49.220;8.654;2022-10-17T05:19:17;11.70;99.90
5683;DHT22;2864;49.220;8.654;2022-10-17T05:21:43;11.70;99.90
5683;DHT22;2864;49.220;8.654;2022-10-17T05:24:10;11.60;99.90
5683;DHT22;2864;49.220;8.654;2022-10-17T05:29:03;11.60;99.90
5683;DHT22;2864;49.220;8.654;2022-10-17T05:31:30;11.50;99.90
5683;DHT22;2864;49.220;8.654;2022-10-17T05:33:59;11.60;99.90
5683;DHT22;2864;49.220;8.654;2022-10-17T05:38:51;11.70;99.90
5683;DHT22;2864;49.220;8.654;2022-10-17T05:41:18;11.70;99.90
5683;DHT22;2864;49.220;8.654;2022-10-17T05:47:00;11.90;99.90
5683;DHT22;2864;49.220;8.654;2022-10-17T05:56:44;12.00;99.90
5683;DHT22;2864;49.220;8.654;2022-10-17T05:59:09;12.00;99.90
5683;DHT22;2864;49.220;8.654;2022-10-17T06:01:35;12.00;99.90
5683;DHT22;2864;49.220;8.654;2022-10-17T06:04:00;12.10;99.90
5683;DHT22;2864;49.220;8.654;2022-10-17T06:11:18;12.10;99.90
5683;DHT22;2864;49.220;8.654;2022-10-17T06:19:31;12.20;99.90
5683;DHT22;2864;49.220;8.654;2022-10-17T06:24:23;12.20;99.90
5683;DHT22;2864;49.220;8.654;2022-10-17T06:29:15;12.30;99.90
5683;DHT22;2864;49.220;8.654;2022-10-17T06:31:41;12.40;99.90
5683;DHT22;2864;49.220;8.654;2022-10-17T06:34:08;12.40;99.90
5683;DHT22;2864;49.220;8.654;2022-10-17T06:38:59;12.50;99.90
5683;DHT22;2864;49.220;8.654;2022-10-17T06:46:18;12.60;99.90
5683;DHT22;2864;49.220;8.654;2022-10-17T06:48:44;12.70;99.90
5683;DHT22;2864;49.220;8.654;2022-10-17T06:51:10;12.70;99.90
5683;DHT22;2864;49.220;8.654;2022-10-17T06:53:38;12.80;99.90
5683;DHT22;2864;49.220;8.654;2022-10-17T06:56:05;12.90;99.90
5683;DHT22;2864;49.220;8.654;2022-10-17T06:58:33;12.90;99.90
5683;DHT22;2864;49.220;8.654;2022-10-17T07:01:05;13.00;99.90
5683;DHT22;2864;49.220;8.654;2022-10-17T07:03:31;13.10;99.90
5683;DHT22;2864;49.220;8.654;2022-10-17T07:05:56;13.10;99.90
5683;DHT22;2864;49.220;8.654;2022-10-17T07:08:22;13.20;99.90
5683;DHT22;2864;49.220;8.654;2022-10-17T07:10:48;13.30;99.90
5683;DHT22;2864;49.220;8.654;2022-10-17T07:13:14;13.40;99.90
5683;DHT22;2864;49.220;8.654;2022-10-17T07:15:40;13.40;99.90
5683;DHT22;2864;49.220;8.654;2022-10-17T07:18:06;13.50;99.90
5683;DHT22;2864;49.220;8.654;2022-10-17T07:20:32;13.50;99.90
5683;DHT22;2864;49.220;8.654;2022-10-17T07:22:57;13.60;99.90
5683;DHT22;2864;49.220;8.654;2022-10-17T07:25:23;13.70;99.90
5683;DHT22;2864;49.220;8.654;2022-10-17T07:27:49;13.80;99.90
5683;DHT22;2864;49.220;8.654;2022-10-17T07:32:41;13.90;99.90
5683;DHT22;2864;49.220;8.654;2022-10-17T07:35:08;14.00;99.90
5683;DHT22;2864;49.220;8.654;2022-10-17T07:37:33;14.10;99.90
5683;DHT22;2864;49.220;8.654;2022-10-17T07:39:59;14.30;99.90
5683;DHT22;2864;49.220;8.654;2022-10-17T07:42:24;14.30;99.90
5683;DHT22;2864;49.220;8.654;2022-10-17T07:44:50;17.20;99.90
5683;DHT22;2864;49.220;8.654;2022-10-17T07:47:15;14.40;99.90
5683;DHT22;2864;49.220;8.654;2022-10-17T07:49:41;14.60;99.90
5683;DHT22;2864;49.220;8.654;2022-10-17T07:52:12;14.60;99.90
5683;DHT22;2864;49.220;8.654;2022-10-17T07:54:38;14.70;99.90
5683;DHT22;2864;49.220;8.654;2022-10-17T07:57:03;14.70;99.90
5683;DHT22;2864;49.220;8.654;2022-10-17T07:59:29;14.80;99.90
5683;DHT22;2864;49.220;8.654;2022-10-17T08:01:55;15.00;99.90
5683;DHT22;2864;49.220;8.654;2022-10-17T08:04:21;15.10;99.90
5683;DHT22;2864;49.220;8.654;2022-10-17T08:06:48;15.50;99.90
5683;DHT22;2864;49.220;8.654;2022-10-17T08:09:13;15.40;99.90
5683;DHT22;2864;49.220;8.654;2022-10-17T08:11:39;15.90;99.90
5683;DHT22;2864;49.220;8.654;2022-10-17T08:14:04;15.80;99.90
5683;DHT22;2864;49.220;8.654;2022-10-17T08:16:31;15.90;99.90
5683;DHT22;2864;49.220;8.654;2022-10-17T08:18:56;16.00;99.90
5683;DHT22;2864;49.220;8.654;2022-10-17T08:21:22;19.70;99.90
5683;DHT22;2864;49.220;8.654;2022-10-17T08:23:47;16.40;99.90
5683;DHT22;2864;49.220;8.654;2022-10-17T08:26:17;17.30;99.90
5683;DHT22;2864;49.220;8.654;2022-10-17T08:28:44;18.90;99.90
5683;DHT22;2864;49.220;8.654;2022-10-17T08:31:15;17.10;99.90
5683;DHT22;2864;49.220;8.654;2022-10-17T08:33:43;17.10;99.90
5683;DHT22;2864;49.220;8.654;2022-10-17T08:36:11;17.20;99.90
5683;DHT22;2864;49.220;8.654;2022-10-17T08:38:37;19.30;99.90
5683;DHT22;2864;49.220;8.654;2022-10-17T08:41:10;17.80;99.90
5683;DHT22;2864;49.220;8.654;2022-10-17T08:46:10;17.90;99.90
5683;DHT22;2864;49.220;8.654;2022-10-17T08:48:42;18.00;99.90
5683;DHT22;2864;49.220;8.654;2022-10-17T08:51:15;18.10;99.90
5683;DHT22;2864;49.220;8.654;2022-10-17T08:53:51;18.10;99.90
5683;DHT22;2864;49.220;8.654;2022-10-17T08:56:21;18.20;99.90
5683;DHT22;2864;49.220;8.654;2022-10-17T08:58:47;18.30;99.90
5683;DHT22;2864;49.220;8.654;2022-10-17T09:01:28;18.70;99.90
5683;DHT22;2864;49.220;8.654;2022-10-17T09:06:33;18.80;99.90
5683;DHT22;2864;49.220;8.654;2022-10-17T09:19:58;19.20;99.90
5683;DHT22;2864;49.220;8.654;2022-10-17T09:22:27;19.40;99.90
5683;DHT22;2864;49.220;8.654;2022-10-17T09:24:57;19.50;99.90
5683;DHT22;2864;49.220;8.654;2022-10-17T09:27:24;19.60;99.90
5683;DHT22;2864;49.220;8.654;2022-10-17T09:30:13;19.70;99.90
5683;DHT22;2864;49.220;8.654;2022-10-17T09:32:40;19.80;99.90
5683;DHT22;2864;49.220;8.654;2022-10-17T09:35:12;19.80;99.90
5683;DHT22;2864;49.220;8.654;2022-10-17T09:37:38;19.70;99.90
5683;DHT22;2864;49.220;8.654;2022-10-17T09:40:06;20.00;99.90
5683;DHT22;2864;49.220;8.654;2022-10-17T09:42:34;19.80;99.90
5683;DHT22;2864;49.220;8.654;2022-10-17T09:47:34;19.70;99.90
5683;DHT22;2864;49.220;8.654;2022-10-17T09:50:08;19.70;99.90
5683;DHT22;2864;49.220;8.654;2022-10-17T09:52:39;19.70;99.90
5683;DHT22;2864;49.220;8.654;2022-10-17T09:55:19;19.60;99.90
5683;DHT22;2864;49.220;8.654;2022-10-17T09:58:00;19.60;99.90
5683;DHT22;2864;49.220;8.654;2022-10-17T10:00:32;19.90;99.90
5683;DHT22;2864;49.220;8.654;2022-10-17T10:08:35;20.10;99.90
5683;DHT22;2864;49.220;8.654;2022-10-17T10:11:05;20.30;99.90
5683;DHT22;2864;49.220;8.654;2022-10-17T10:13:32;20.30;99.90
5683;DHT22;2864;49.220;8.654;2022-10-17T10:16:14;20.30;99.90
5683;DHT22;2864;49.220;8.654;2022-10-17T10:18:40;20.40;99.90
5683;DHT22;2864;49.220;8.654;2022-10-17T10:23:34;20.60;99.90
5683;DHT22;2864;49.220;8.654;2022-10-17T10:26:25;21.00;99.90
5683;DHT22;2864;49.220;8.654;2022-10-17T10:29:17;21.00;99.90
5683;DHT22;2864;49.220;8.654;2022-10-17T10:31:45;21.10;99.90
5683;DHT22;2864;49.220;8.654;2022-10-17T10:34:27;21.20;99.90
5683;DHT22;2864;49.220;8.654;2022-10-17T10:37:00;21.30;99.90
5683;DHT22;2864;49.220;8.654;2022-10-17T10:39:53;21.30;99.90
5683;DHT22;2864;49.220;8.654;2022-10-17T10:42:39;21.50;99.90
5683;DHT22;2864;49.220;8.654;2022-10-17T10:47:54;21.60;99.90
5683;DHT22;2864;49.220;8.654;2022-10-17T10:55:57;22.00;99.90
5683;DHT22;2864;49.220;8.654;2022-10-17T10:58:36;22.20;99.90
5683;DHT22;2864;49.220;8.654;2022-10-17T11:01:22;22.30;99.90
5683;DHT22;2864;49.220;8.654;2022-10-17T11:06:36;22.70;99.90
5683;DHT22;2864;49.220;8.654;2022-10-17T11:09:30;22.80;99.90
5683;DHT22;2864;49.220;8.654;2022-10-17T11:12:27;22.60;99.90
5683;DHT22;2864;49.220;8.654;2022-10-17T11:15:22;22.70;99.90
5683;DHT22;2864;49.220;8.654;2022-10-17T11:20:56;22.60;99.80
5683;DHT22;2864;49.220;8.654;2022-10-17T11:23:38;22.70;99.90
5683;DHT22;2864;49.220;8.654;2022-10-17T11:26:15;23.00;99.90
5683;DHT22;2864;49.220;8.654;2022-10-17T11:28:44;23.20;99.90
5683;DHT22;2864;49.220;8.654;2022-10-17T11:31:12;23.20;99.80
5683;DHT22;2864;49.220;8.654;2022-10-17T11:33:48;23.40;99.90
5683;DHT22;2864;49.220;8.654;2022-10-17T11:36:17;23.20;98.70
5683;DHT22;2864;49.220;8.654;2022-10-17T11:38:49;23.10;99.10
5683;DHT22;2864;49.220;8.654;2022-10-17T11:42:10;23.20;98.90
5683;DHT22;2864;49.220;8.654;2022-10-17T11:47:01;23.60;98.80
5683;DHT22;2864;49.220;8.654;2022-10-17T11:49:42;23.60;98.20
5683;DHT22;2864;49.220;8.654;2022-10-17T11:52:41;23.80;98.80
5683;DHT22;2864;49.220;8.654;2022-10-17T11:55:23;23.90;98.50
5683;DHT22;2864;49.220;8.654;2022-10-17T11:58:26;24.30;98.30
5683;DHT22;2864;49.220;8.654;2022-10-17T12:01:10;24.40;96.70
5683;DHT22;2864;49.220;8.654;2022-10-17T12:09:17;24.40;96.10
5683;DHT22;2864;49.220;8.654;2022-10-17T12:11:48;24.50;95.50
5683;DHT22;2864;49.220;8.654;2022-10-17T12:16:59;24.80;95.30
5683;DHT22;2864;49.220;8.654;2022-10-17T12:19:27;25.00;94.60
5683;DHT22;2864;49.220;8.654;2022-10-17T12:22:16;25.10;94.80
5683;DHT22;2864;49.220;8.654;2022-10-17T12:24:51;25.80;93.80
5683;DHT22;2864;49.220;8.654;2022-10-17T12:27:38;27.10;90.70
5683;DHT22;2864;49.220;8.654;2022-10-17T12:30:21;27.30;88.60
5683;DHT22;2864;49.220;8.654;2022-10-17T12:33:19;28.20;86.60
5683;DHT22;2864;49.220;8.654;2022-10-17T12:35:48;29.00;82.90
5683;DHT22;2864;49.220;8.654;2022-10-17T12:38:20;28.80;83.30
5683;DHT22;2864;49.220;8.654;2022-10-17T12:40:48;30.40;82.50
5683;DHT22;2864;49.220;8.654;2022-10-17T12:45:49;32.50;73.50
5683;DHT22;2864;49.220;8.654;2022-10-17T12:56:18;32.30;69.10
5683;DHT22;2864;49.220;8.654;2022-10-17T12:58:48;33.20;66.90
5683;DHT22;2864;49.220;8.654;2022-10-17T13:01:23;33.70;64.50
5683;DHT22;2864;49.220;8.654;2022-10-17T13:03:51;34.40;64.40
5683;DHT22;2864;49.220;8.654;2022-10-17T13:06:26;34.10;64.40
5683;DHT22;2864;49.220;8.654;2022-10-17T13:09:01;34.50;62.10
5683;DHT22;2864;49.220;8.654;2022-10-17T13:11:30;35.20;60.50
5683;DHT22;2864;49.220;8.654;2022-10-17T13:13:59;35.40;60.00
5683;DHT22;2864;49.220;8.654;2022-10-17T13:16:33;33.80;59.90
5683;DHT22;2864;49.220;8.654;2022-10-17T13:19:01;33.40;62.00
5683;DHT22;2864;49.220;8.654;2022-10-17T13:21:27;33.40;61.40
5683;DHT22;2864;49.220;8.654;2022-10-17T13:23:53;33.00;61.40
5683;DHT22;2864;49.220;8.654;2022-10-17T13:26:25;33.40;61.80
5683;DHT22;2864;49.220;8.654;2022-10-17T13:29:08;33.80;61.40
5683;DHT22;2864;49.220;8.654;2022-10-17T13:31:37;33.00;61.40
5683;DHT22;2864;49.220;8.654;2022-10-17T13:34:05;32.70;62.00
5683;DHT22;2864;49.220;8.654;2022-10-17T13:36:32;33.80;61.30
5683;DHT22;2864;49.220;8.654;2022-10-17T13:39:04;34.10;59.80
5683;DHT22;2864;49.220;8.654;2022-10-17T13:41:31;34.50;60.10
5683;DHT22;2864;49.220;8.654;2022-10-17T13:43:58;33.40;60.10
5683;DHT22;2864;49.220;8.654;2022-10-17T13:46:30;34.50;59.70
5683;DHT22;2864;49.220;8.654;2022-10-17T13:48:57;33.80;59.80
5683;DHT22;2864;49.220;8.654;2022-10-17T13:51:25;35.30;58.90
5683;DHT22;2864;49.220;8.654;2022-10-17T13:53:52;33.50;59.50
5683;DHT22;2864;49.220;8.654;2022-10-17T13:58:48;34.80;58.60
5683;DHT22;2864;49.220;8.654;2022-10-17T14:01:14;32.60;60.20
5683;DHT22;2864;49.220;8.654;2022-10-17T14:03:41;33.50;60.00
5683;DHT22;2864;49.220;8.654;2022-10-17T14:06:19;34.80;59.00
5683;DHT22;2864;49.220;8.654;2022-10-17T14:08:55;35.20;58.90
5683;DHT22;2864;49.220;8.654;2022-10-17T14:11:26;35.10;58.60
5683;DHT22;2864;49.220;8.654;2022-10-17T14:13:55;36.80;57.50
5683;DHT22;2864;49.220;8.654;2022-10-17T14:16:22;36.00;57.50
5683;DHT22;2864;49.220;8.654;2022-10-17T14:18:49;36.20;57.80
5683;DHT22;2864;49.220;8.654;2022-10-17T14:21:24;35.40;57.40
5683;DHT22;2864;49.220;8.654;2022-10-17T14:23:52;35.10;57.50
5683;DHT22;2864;49.220;8.654;2022-10-17T14:26:49;34.40;58.00
5683;DHT22;2864;49.220;8.654;2022-10-17T14:29:27;35.40;58.00
5683;DHT22;2864;49.220;8.654;2022-10-17T14:32:06;36.30;57.70
5683;DHT22;2864;49.220;8.654;2022-10-17T14:34:37;34.70;57.80
5683;DHT22;2864;49.220;8.654;2022-10-17T14:39:52;35.90;57.50
5683;DHT22;2864;49.220;8.654;2022-10-17T14:42:20;35.60;56.70
5683;DHT22;2864;49.220;8.654;2022-10-17T14:44:51;35.40;57.70
5683;DHT22;2864;49.220;8.654;2022-10-17T14:47:20;32.80;55.70
5683;DHT22;2864;49.220;8.654;2022-10-17T14:49:49;35.20;57.00
5683;DHT22;2864;49.220;8.654;2022-10-17T14:54:44;34.10;57.80
5683;DHT22;2864;49.220;8.654;2022-10-17T14:57:23;34.40;57.40
5683;DHT22;2864;49.220;8.654;2022-10-17T14:59:49;34.10;57.90
5683;DHT22;2864;49.220;8.654;2022-10-17T15:02:15;34.90;57.50
5683;DHT22;2864;49.220;8.654;2022-10-17T15:04:41;33.80;58.30
5683;DHT22;2864;49.220;8.654;2022-10-17T15:07:09;34.40;57.80
5683;DHT22;2864;49.220;8.654;2022-10-17T15:09:37;34.60;58.00
5683;DHT22;2864;49.220;8.654;2022-10-17T15:12:05;35.30;57.20
5683;DHT22;2864;49.220;8.654;2022-10-17T15:14:31;34.50;57.50
5683;DHT22;2864;49.220;8.654;2022-10-17T15:16:56;34.60;57.90
5683;DHT22;2864;49.220;8.654;2022-10-17T15:19:22;33.90;58.10
5683;DHT22;2864;49.220;8.654;2022-10-17T15:21:47;33.20;58.70
5683;DHT22;2864;49.220;8.654;2022-10-17T15:24:13;33.40;58.60
5683;DHT22;2864;49.220;8.654;2022-10-17T15:26:40;33.20;58.70
5683;DHT22;2864;49.220;8.654;2022-10-17T15:29:05;32.50;59.10
5683;DHT22;2864;49.220;8.654;2022-10-17T15:31:31;32.50;59.60
5683;DHT22;2864;49.220;8.654;2022-10-17T15:33:57;32.10;59.80
5683;DHT22;2864;49.220;8.654;2022-10-17T15:36:28;30.40;61.40
5683;DHT22;2864;49.220;8.654;2022-10-17T15:38:57;28.90;65.10
5683;DHT22;2864;49.220;8.654;2022-10-17T15:41:24;27.60;67.20
5683;DHT22;2864;49.220;8.654;2022-10-17T15:43:50;26.60;69.30
5683;DHT22;2864;49.220;8.654;2022-10-17T15:46:27;25.80;71.90
5683;DHT22;2864;49.220;8.654;2022-10-17T15:48:54;24.50;74.70
5683;DHT22;2864;49.220;8.654;2022-10-17T15:51:20;24.70;75.40
5683;DHT22;2864;49.220;8.654;2022-10-17T15:53:46;23.90;77.00
5683;DHT22;2864;49.220;8.654;2022-10-17T15:56:19;23.70;78.00
5683;DHT22;2864;49.220;8.654;2022-10-17T15:58:46;23.60;78.90
5683;DHT22;2864;49.220;8.654;2022-10-17T16:01:22;23.40;80.30
5683;DHT22;2864;49.220;8.654;2022-10-17T16:06:16;22.90;82.50
5683;DHT22;2864;49.220;8.654;2022-10-17T16:11:35;22.50;84.90
5683;DHT22;2864;49.220;8.654;2022-10-17T16:14:06;22.30;86.40
5683;DHT22;2864;49.220;8.654;2022-10-17T16:16:32;22.10;87.30
5683;DHT22;2864;49.220;8.654;2022-10-17T16:21:28;21.80;90.20
5683;DHT22;2864;49.220;8.654;2022-10-17T16:23:55;21.60;91.20
5683;DHT22;2864;49.220;8.654;2022-10-17T16:26:21;21.30;91.80
5683;DHT22;2864;49.220;8.654;2022-10-17T16:28:46;21.10;92.90
5683;DHT22;2864;49.220;8.654;2022-10-17T16:31:22;20.90;94.40
5683;DHT22;2864;49.220;8.654;2022-10-17T16:33:54;20.60;95.90
5683;DHT22;2864;49.220;8.654;2022-10-17T16:38:46;20.10;99.90
5683;DHT22;2864;49.220;8.654;2022-10-17T16:41:33;19.90;99.90
5683;DHT22;2864;49.220;8.654;2022-10-17T16:44:08;19.60;99.90
5683;DHT22;2864;49.220;8.654;2022-10-17T16:46:36;19.30;99.90
5683;DHT22;2864;49.220;8.654;2022-10-17T16:49:06;19.20;99.90
5683;DHT22;2864;49.220;8.654;2022-10-17T16:51:32;19.00;99.90
5683;DHT22;2864;49.220;8.654;2022-10-17T16:54:00;18.90;99.90
5683;DHT22;2864;49.220;8.654;2022-10-17T16:56:27;18.80;99.90
5683;DHT22;2864;49.220;8.654;2022-10-17T17:01:24;18.50;99.90
5683;DHT22;2864;49.220;8.654;2022-10-17T17:03:51;18.30;99.90
5683;DHT22;2864;49.220;8.654;2022-10-17T17:06:22;18.20;99.90
5683;DHT22;2864;49.220;8.654;2022-10-17T17:11:19;18.00;99.90
5683;DHT22;2864;49.220;8.654;2022-10-17T17:16:17;17.80;99.90
5683;DHT22;2864;49.220;8.654;2022-10-17T17:18:43;17.70;99.90
5683;DHT22;2864;49.220;8.654;2022-10-17T17:21:11;17.70;99.90
5683;DHT22;2864;49.220;8.654;2022-10-17T17:23:38;17.70;99.90
5683;DHT22;2864;49.220;8.654;2022-10-17T17:26:11;17.60;99.90
5683;DHT22;2864;49.220;8.654;2022-10-17T17:28:37;17.50;99.90
5683;DHT22;2864;49.220;8.654;2022-10-17T17:31:13;17.50;99.90
5683;DHT22;2864;49.220;8.654;2022-10-17T17:33:40;17.40;99.90
5683;DHT22;2864;49.220;8.654;2022-10-17T17:36:06;17.30;99.90
5683;DHT22;2864;49.220;8.654;2022-10-17T17:38:34;17.30;99.90
5683;DHT22;2864;49.220;8.654;2022-10-17T17:41:01;17.20;99.90
5683;DHT22;2864;49.220;8.654;2022-10-17T17:45:53;17.10;99.90
5683;DHT22;2864;49.220;8.654;2022-10-17T17:48:19;17.00;99.90
5683;DHT22;2864;49.220;8.654;2022-10-17T17:50:45;17.00;99.90
5683;DHT22;2864;49.220;8.654;2022-10-17T17:53:12;16.90;99.90
5683;DHT22;2864;49.220;8.654;2022-10-17T17:58:05;16.80;99.90
5683;DHT22;2864;49.220;8.654;2022-10-17T18:02:59;16.70;99.90
5683;DHT22;2864;49.220;8.654;2022-10-17T18:05:24;16.60;99.90
5683;DHT22;2864;49.220;8.654;2022-10-17T18:15:08;16.50;99.90
5683;DHT22;2864;49.220;8.654;2022-10-17T18:20:00;16.40;99.90
5683;DHT22;2864;49.220;8.654;2022-10-17T18:22:27;16.40;99.90
5683;DHT22;2864;49.220;8.654;2022-10-17T18:29:44;16.30;99.90
5683;DHT22;2864;49.220;8.654;2022-10-17T18:32:11;16.40;99.90
5683;DHT22;2864;49.220;8.654;2022-10-17T18:46:47;16.50;99.90
5683;DHT22;2864;49.220;8.654;2022-10-17T18:49:15;16.50;99.90
5683;DHT22;2864;49.220;8.654;2022-10-17T18:51:43;16.50;99.90
5683;DHT22;2864;49.220;8.654;2022-10-17T18:54:12;16.50;99.90
5683;DHT22;2864;49.220;8.654;2022-10-17T18:56:39;16.50;99.90
5683;DHT22;2864;49.220;8.654;2022-10-17T18:59:05;16.40;99.90
5683;DHT22;2864;49.220;8.654;2022-10-17T19:01:30;16.40;99.90
5683;DHT22;2864;49.220;8.654;2022-10-17T19:03:57;16.40;99.90
5683;DHT22;2864;49.220;8.654;2022-10-17T19:06:26;18.30;99.90
5683;DHT22;2864;49.220;8.654;2022-10-17T19:08:52;16.20;99.90
5683;DHT22;2864;49.220;8.654;2022-10-17T19:11:20;16.20;99.90
5683;DHT22;2864;49.220;8.654;2022-10-17T19:13:47;16.20;99.90
5683;DHT22;2864;49.220;8.654;2022-10-17T19:16:15;16.20;99.90
5683;DHT22;2864;49.220;8.654;2022-10-17T19:18:41;16.60;99.90
5683;DHT22;2864;49.220;8.654;2022-10-17T19:21:08;18.40;99.90
5683;DHT22;2864;49.220;8.654;2022-10-17T19:23:35;16.20;99.90
5683;DHT22;2864;49.220;8.654;2022-10-17T19:26:03;16.10;99.90
5683;DHT22;2864;49.220;8.654;2022-10-17T19:28:29;16.30;99.90
5683;DHT22;2864;49.220;8.654;2022-10-17T19:30:55;16.50;99.90
5683;DHT22;2864;49.220;8.654;2022-10-17T19:33:21;16.00;99.90
5683;DHT22;2864;49.220;8.654;2022-10-17T19:35:58;15.90;99.90
5683;DHT22;2864;49.220;8.654;2022-10-17T19:38:24;15.90;99.90
5683;DHT22;2864;49.220;8.654;2022-10-17T19:40:50;16.40;99.90
5683;DHT22;2864;49.220;8.654;2022-10-17T19:43:16;15.90;99.90
5683;DHT22;2864;49.220;8.654;2022-10-17T19:45:42;16.80;99.90
5683;DHT22;2864;49.220;8.654;2022-10-17T19:48:07;17.00;99.90
5683;DHT22;2864;49.220;8.654;2022-10-17T19:50:33;15.80;99.90
5683;DHT22;2864;49.220;8.654;2022-10-17T19:52:59;15.70;99.90
5683;DHT22;2864;49.220;8.654;2022-10-17T19:55:25;15.70;99.90
5683;DHT22;2864;49.220;8.654;2022-10-17T19:57:50;15.70;99.90
5683;DHT22;2864;49.220;8.654;2022-10-17T20:00:16;15.70;99.90
5683;DHT22;2864;49.220;8.654;2022-10-17T20:02:41;16.00;99.90
5683;DHT22;2864;49.220;8.654;2022-10-17T20:05:07;15.70;99.90
5683;DHT22;2864;49.220;8.654;2022-10-17T20:07:40;15.70;99.90
5683;DHT22;2864;49.220;8.654;2022-10-17T20:10:06;15.70;99.90
5683;DHT22;2864;49.220;8.654;2022-10-17T20:12:32;15.60;99.90
5683;DHT22;2864;49.220;8.654;2022-10-17T20:14:58;15.70;99.90
5683;DHT22;2864;49.220;8.654;2022-10-17T20:17:24;15.60;99.90
5683;DHT22;2864;49.220;8.654;2022-10-17T20:19:50;15.60;99.90
5683;DHT22;2864;49.220;8.654;2022-10-17T20:22:16;15.60;99.90
5683;DHT22;2864;49.220;8.654;2022-10-17T20:24:42;15.50;99.90
5683;DHT22;2864;49.220;8.654;2022-10-17T20:27:07;15.50;99.90
5683;DHT22;2864;49.220;8.654;2022-10-17T20:29:33;15.50;99.90
5683;DHT22;2864;49.220;8.654;2022-10-17T20:31:59;15.50;99.90
5683;DHT22;2864;49.220;8.654;2022-10-17T20:34:25;17.70;99.90
5683;DHT22;2864;49.220;8.654;2022-10-17T20:36:50;15.40;99.90
5683;DHT22;2864;49.220;8.654;2022-10-17T20:42:38;15.40;99.90
5683;DHT22;2864;49.220;8.654;2022-10-17T20:45:04;16.20;99.90
5683;DHT22;2864;49.220;8.654;2022-10-17T20:47:30;15.50;99.90